Terminal Aerodrome Forecast
Issued by NWS Northern Indiana

Home | Current Version | Previous Version | Text Only | Print | Product List | Glossary Off
Versions: 1 2 3 4 5 6 7 8 9 10 11 12 13

000
FTUS43 KIWX 241720
TAFFWA
TAF
KFWA 241720Z 2418/2518 24010KT P6SM BKN250
     FM250200 18003KT P6SM BKN250
     FM251600 22009KT P6SM SCT040=

USA.gov is the U.S. government's official web portal to all federal, state and local government web resources and services.